Terminal Aerodrome Forecast
Issued by NWS El Paso, TX

Home | Current Version | Previous Version | Text Only | Print | Product List | Glossary On
Versions: 1 2 3 4 5 6 7 8 9 10 11 12 13
000
FTUS44 KEPZ 190300 AAA
TAFELP
TAF AMD
KELP 190309Z 1903/1924 28013G23KT P6SM SCT120
     FM190700 29010KT P6SM FEW080
     FM191700 27010G18KT P6SM FEW140=

USA.gov is the U.S. government's official web portal to all federal, state and local government web resources and services.